Time;durP1;ratioP1;P1;durP2;ratioP2;P2;SDS_P1;SDS_P2;PMS_P1;PMS_P2;Temp;Humidity;BMP_temperature;BMP_pressure;BME280_temperature;BME280_humidity;BME280_pressure;Samples;Min_cycle;Max_cycle;Signal;HPM_P1;HPM_P2
2023/07/14 08:59:17;;;;;;;11.27;4.53;;;;;;;-143.84;30.89;44736.81;5104247;28;20454;-70
2023/07/14 09:01:51;;;;;;;9.63;4.10;;;;;;;-143.84;30.35;44761.56;5089287;28;20862;-69
2023/07/14 09:04:24;;;;;;;9.00;3.80;;;;;;;-143.84;31.43;44780.59;5088960;28;20546;-69
2023/07/14 09:10:28;;;;;;;9.33;3.77;;;;;;;-143.84;31.13;44778.69;5089357;28;20447;-69
2023/07/14 09:13:02;;;;;;;7.90;3.73;;;;;;;-143.84;30.50;44761.56;5089248;28;20475;-70
2023/07/14 09:15:30;;;;;;;6.00;3.73;;;;;;;-143.84;29.96;44778.69;5054170;28;20447;-69
2023/07/14 09:18:17;;;;;;;8.03;3.83;;;;;;;-143.84;30.74;44759.66;5089234;28;20797;-69
2023/07/14 09:21:02;;;;;;;6.60;3.87;;;;;;;-143.84;30.87;44786.31;5088488;28;20444;-69
2023/07/14 09:24:03;;;;;;;3.67;3.33;;;;;;;-143.84;30.67;44750.13;5071435;28;20497;-69
2023/07/14 09:26:33;;;;;;;9.57;4.03;;;;;;;-143.84;29.35;44723.47;5055985;28;20448;-69
2023/07/14 09:29:08;;;;;;;17.90;4.10;;;;;;;-143.84;29.58;44736.81;5088693;28;20448;-69
2023/07/14 09:35:04;;;;;;;6.53;3.63;;;;;;;-143.84;29.84;44750.13;5089322;28;20937;-69
2023/07/14 09:37:36;;;;;;;7.77;3.73;;;;;;;-143.84;29.38;44712.06;5089055;28;20456;-69
2023/07/14 09:40:09;;;;;;;14.07;3.90;;;;;;;;;;5070690;28;20444;-69
2023/07/14 09:42:40;;;;;;;9.07;4.57;;;;;;;-143.84;29.53;44740.59;5088697;28;20437;-69
2023/07/14 09:45:15;;;;;;;7.43;3.80;;;;;;;-143.84;29.70;44733.00;5088917;28;20499;-69
2023/07/14 09:47:45;;;;;;;5.90;3.87;;;;;;;-143.84;29.05;44712.06;5088947;28;20938;-69
2023/07/14 09:50:51;;;;;;;6.23;3.63;;;;;;;-143.84;30.31;44691.09;5089088;28;20487;-69
2023/07/14 09:53:18;;;;;;;9.87;4.27;;;;;;;-143.84;31.74;44713.94;5070622;28;21274;-69
2023/07/14 09:55:50;;;;;;;8.87;3.77;;;;;;;-143.84;31.29;44717.75;5070869;28;20441;-69
2023/07/14 09:58:21;;;;;;;10.93;3.70;;;;;;;-143.84;31.62;44708.25;5071033;28;20459;-69
2023/07/14 10:00:50;;;;;;;9.33;3.70;;;;;;;-143.84;30.82;44742.50;5083791;28;20479;-64
2023/07/14 10:03:19;;;;;;;7.17;3.53;;;;;;;-143.84;30.67;44712.06;5108115;28;20469;-64
2023/07/14 10:05:57;;;;;;;9.17;4.10;;;;;;;-143.84;33.47;44679.69;5108319;28;20443;-64
2023/07/14 10:08:33;;;;;;;9.97;3.43;;;;;;;-143.84;33.26;44727.28;5108909;28;21372;-64
2023/07/14 10:11:20;;;;;;;10.73;3.30;;;;;;;-143.84;33.00;44733.00;5108158;28;20442;-64
2023/07/14 10:13:52;;;;;;;7.20;3.00;;;;;;;-143.84;33.48;44772.97;5108239;28;20489;-64
2023/07/14 10:16:22;;;;;;;6.50;2.57;;;;;;;-143.84;35.19;44809.16;5108761;28;20435;-64
2023/07/14 10:18:52;;;;;;;5.60;2.87;;;;;;;-143.84;34.59;44807.25;5108729;28;20929;-64
2023/07/14 10:21:27;;;;;;;12.90;3.50;;;;;;;-143.84;34.60;44772.97;5108698;28;20937;-64
2023/07/14 10:24:04;;;;;;;6.43;2.43;;;;;;;-143.84;35.24;44772.97;5091079;28;20447;-64
2023/07/14 10:26:34;;;;;;;11.47;3.00;;;;;;;-143.84;36.19;44828.19;5108786;28;20454;-64
2023/07/14 10:29:06;;;;;;;5.30;3.30;;;;;;;-143.84;36.65;44832.00;5108503;28;20435;-64
2023/07/14 10:31:41;;;;;;;7.17;3.00;;;;;;;-143.84;37.16;44849.13;5092726;28;20432;-64
2023/07/14 10:34:34;;;;;;;41.13;4.43;;;;;;;-143.84;38.95;44833.91;5094026;28;20530;-64
2023/07/14 10:37:11;;;;;;;4.83;2.70;;;;;;;-143.84;39.06;44828.19;5112200;28;20451;-64
2023/07/14 10:39:43;;;;;;;10.30;3.83;;;;;;;-143.84;40.63;44839.63;5112322;28;20442;-64
2023/07/14 10:42:24;;;;;;;5.93;3.17;;;;;;;-143.84;40.70;44847.22;5112296;28;20481;-64
2023/07/14 10:44:52;;;;;;;16.53;4.07;;;;;;;-143.84;40.83;44858.66;5112234;28;20443;-64
2023/07/14 10:47:24;;;;;;;12.27;3.33;;;;;;;-143.84;39.66;44849.13;5112139;28;21026;-64
2023/07/14 10:50:01;;;;;;;8.43;3.03;;;;;;;-143.84;41.98;44856.75;5094193;28;20436;-63
2023/07/14 10:52:38;;;;;;;6.57;3.03;;;;;;;-143.84;40.12;44864.38;5111895;28;20750;-64
2023/07/14 10:59:00;;;;;;;7.87;3.20;;;;;;;-143.84;41.58;44896.75;5072691;28;20500;-64
2023/07/14 11:01:36;;;;;;;15.07;3.30;;;;;;;-143.84;42.34;44866.28;5110530;28;20858;-64
2023/07/14 11:04:16;;;;;;;7.53;3.20;;;;;;;-143.84;41.00;44856.75;5111887;28;20448;-64
2023/07/14 11:06:48;;;;;;;9.53;3.07;;;;;;;-143.84;43.11;44875.78;5112052;28;20440;-64
2023/07/14 11:09:16;;;;;;;6.03;3.27;;;;;;;-143.84;45.31;44885.31;5111842;28;20925;-63
2023/07/14 11:15:40;;;;;;;12.23;2.70;;;;;;;-143.84;43.80;44873.88;5010205;28;20446;-64
2023/07/14 11:18:20;;;;;;;7.40;3.50;;;;;;;-143.84;46.98;44883.41;5111577;28;20466;-64
2023/07/14 11:21:00;;;;;;;10.50;3.50;;;;;;;-143.84;48.56;44883.41;5111537;28;20990;-63
2023/07/14 11:23:33;;;;;;;6.53;3.53;;;;;;;-143.84;46.12;44900.53;5111629;28;20538;-63
2023/07/14 11:26:09;;;;;;;9.60;3.70;;;;;;;-143.84;45.32;44889.13;5111475;28;20489;-63
2023/07/14 11:28:51;;;;;;;9.20;3.13;;;;;;;-143.84;42.71;44911.97;5111533;28;20443;-64
2023/07/14 11:31:23;;;;;;;7.17;2.77;;;;;;;-143.84;45.58;44894.84;5111461;28;20440;-64
2023/07/14 11:34:05;;;;;;;12.33;3.17;;;;;;;-143.84;46.46;44891.03;5111472;28;20479;-63
2023/07/14 11:36:38;;;;;;;11.17;4.37;;;;;;;-143.84;47.40;44902.44;5111148;28;20527;-63
2023/07/14 11:39:16;;;;;;;18.87;4.00;;;;;;;-143.84;45.18;44885.31;5111666;28;20511;-64
2023/07/14 11:41:46;;;;;;;11.73;4.10;;;;;;;-143.84;47.20;44904.34;5111207;28;20432;-64
2023/07/14 11:44:27;;;;;;;12.50;4.20;;;;;;;-143.84;46.35;44896.75;5110610;28;20455;-64
2023/07/14 11:47:02;;;;;;;9.40;3.20;;;;;;;-143.84;47.69;44889.13;5111310;28;20440;-64
2023/07/14 11:49:37;;;;;;;11.97;4.23;;;;;;;-143.84;44.50;44900.53;5111077;28;20841;-63
2023/07/14 11:52:21;;;;;;;11.83;3.97;;;;;;;-143.84;47.00;44915.78;5110881;28;20443;-63
2023/07/14 11:55:00;;;;;;;11.43;3.20;;;;;;;-143.84;46.51;44910.06;5108850;28;20444;-63
2023/07/14 12:00:41;;;;;;;6.87;3.60;;;;;;;-143.84;45.92;44896.75;5105974;28;20483;-63
2023/07/14 12:03:27;;;;;;;9.83;3.40;;;;;;;-143.84;45.99;44917.69;5110947;28;20448;-64
2023/07/14 12:06:28;;;;;;;7.33;3.27;;;;;;;-143.84;45.79;44913.88;5110750;28;20443;-64
2023/07/14 12:09:14;;;;;;;4.00;2.93;;;;;;;-143.84;47.94;44904.34;5110654;28;20447;-63
2023/07/14 12:11:54;;;;;;;7.43;3.07;;;;;;;-143.84;48.94;44896.75;5110597;28;20444;-63
2023/07/14 12:14:46;;;;;;;7.00;3.67;;;;;;;-143.84;49.67;44923.41;5110286;28;20534;-64
2023/07/14 12:17:45;;;;;;;5.33;3.10;;;;;;;-143.84;49.80;44934.81;5110832;28;20472;-63
2023/07/14 12:20:28;;;;;;;8.60;3.00;;;;;;;-143.84;50.91;44953.88;5101338;28;20458;-63
2023/07/14 12:23:24;;;;;;;16.57;3.20;;;;;;;-143.84;51.67;44951.97;5110549;28;20917;-63
2023/07/14 12:25:57;;;;;;;6.70;3.03;;;;;;;-143.84;52.70;44921.50;5052139;28;20458;-63
2023/07/14 12:28:30;;;;;;;7.90;3.57;;;;;;;-143.84;54.45;44953.88;5110429;28;21134;-63
2023/07/14 12:31:03;;;;;;;9.77;3.40;;;;;;;-143.84;55.69;44955.75;5110078;28;20440;-63
2023/07/14 12:33:30;;;;;;;9.90;3.40;;;;;;;-143.84;55.46;44974.81;5110179;28;21222;-63
2023/07/14 12:36:01;;;;;;;14.90;4.70;;;;;;;-143.84;55.68;44942.44;5110096;28;20443;-63
2023/07/14 12:41:54;;;;;;;11.23;3.60;;;;;;;-143.84;56.57;44932.91;5109937;28;20460;-63
2023/07/14 12:44:25;;;;;;;10.00;3.83;;;;;;;-143.84;56.79;44946.25;5109943;28;20442;-64
2023/07/14 12:46:56;;;;;;;12.13;3.70;;;;;;;-143.84;57.74;44965.28;5109874;28;20442;-63
2023/07/14 12:49:46;;;;;;;12.47;3.47;;;;;;;-143.84;55.83;44944.34;5109971;28;20508;-63
2023/07/14 12:52:17;;;;;;;13.93;4.40;;;;;;;-143.84;58.03;44961.47;5110061;28;20443;-63
2023/07/14 13:12:19;;;;;;;15.03;4.60;;;;;;;-143.84;56.53;44969.09;5106222;28;20477;-63
2023/07/14 13:14:52;;;;;;;9.97;4.03;;;;;;;-143.84;56.76;44950.06;5109113;28;20486;-64
2023/07/14 13:17:23;;;;;;;8.70;3.40;;;;;;;-143.84;54.61;44963.38;5109576;28;20438;-64
2023/07/14 13:19:51;;;;;;;10.53;3.10;;;;;;;-143.84;55.46;44965.28;5109578;28;20438;-64
2023/07/14 13:22:22;;;;;;;13.80;3.93;;;;;;;-143.84;55.54;44942.44;5109355;28;20452;-63
2023/07/14 13:24:59;;;;;;;12.57;3.83;;;;;;;-143.84;55.06;44965.28;5109423;28;20490;-64
2023/07/14 13:27:28;;;;;;;6.80;3.37;;;;;;;-143.84;54.12;44932.91;5109300;28;20450;-64
2023/07/14 13:30:00;;;;;;;4.43;3.50;;;;;;;-143.84;53.98;44967.19;5109716;28;20442;-64
2023/07/14 13:32:28;;;;;;;12.00;2.90;;;;;;;-143.84;53.63;44957.66;5109566;28;20457;-64
2023/07/14 13:34:59;;;;;;;14.47;4.10;;;;;;;-143.84;53.98;44969.09;5109237;28;20560;-63
2023/07/14 13:37:28;;;;;;;16.23;4.10;;;;;;;-143.84;54.92;44950.06;5109060;28;20821;-64
2023/07/14 13:39:57;;;;;;;17.67;4.30;;;;;;;-143.84;54.38;44948.16;5109207;28;20454;-64
2023/07/14 13:42:34;;;;;;;13.27;3.97;;;;;;;-143.84;52.27;44963.38;5109424;28;20513;-64
2023/07/14 13:45:03;;;;;;;6.80;3.43;;;;;;;-143.84;53.04;44950.06;5109194;28;20450;-64
2023/07/14 13:47:43;;;;;;;12.27;4.10;;;;;;;-143.84;54.06;44974.81;5109465;28;20558;-63
2023/07/14 13:50:12;;;;;;;13.13;3.40;;;;;;;-143.84;55.37;44969.09;5108956;28;20439;-63
2023/07/14 13:52:39;;;;;;;19.23;3.53;;;;;;;-143.84;54.32;44931.00;5109027;28;20508;-64
2023/07/14 13:55:13;;;;;;;11.67;3.97;;;;;;;-143.84;54.82;44957.66;5109063;28;20447;-64
2023/07/14 13:57:42;;;;;;;16.33;4.23;;;;;;;-143.84;54.94;44963.38;5109239;28;20454;-64
2023/07/14 14:00:15;;;;;;;11.10;3.00;;;;;;;-143.84;52.97;44927.19;5109098;28;20441;-63
2023/07/14 14:02:46;;;;;;;9.37;3.70;;;;;;;-143.84;52.58;44944.34;5109150;28;20538;-64
2023/07/14 14:05:16;;;;;;;12.23;4.37;;;;;;;-143.84;51.57;44957.66;5108871;28;20443;-63
2023/07/14 14:07:43;;;;;;;8.20;3.70;;;;;;;-143.84;52.14;44976.72;5112968;28;20509;-64
2023/07/14 14:10:12;;;;;;;9.77;3.93;;;;;;;-143.84;52.47;44974.81;5112905;28;20439;-64
2023/07/14 14:12:39;;;;;;;13.60;4.63;;;;;;;-143.84;52.13;44969.09;5112604;28;21030;-64
2023/07/14 14:15:14;;;;;;;15.20;3.80;;;;;;;-143.84;51.86;44961.47;5112631;28;20476;-64
2023/07/14 14:17:42;;;;;;;14.27;3.90;;;;;;;-143.84;50.71;44965.28;5112817;28;20449;-64
2023/07/14 14:20:16;;;;;;;5.70;3.30;;;;;;;-143.84;50.76;44965.28;5112555;28;20443;-64
2023/07/14 14:22:45;;;;;;;15.13;3.70;;;;;;;-143.84;51.96;44976.72;5112587;28;20443;-64
2023/07/14 14:25:16;;;;;;;7.93;3.57;;;;;;;-143.84;51.79;44963.38;5112635;28;20856;-64
2023/07/14 14:27:43;;;;;;;21.37;4.17;;;;;;;-143.84;52.31;44963.38;5112634;28;20452;-64
2023/07/14 14:30:14;;;;;;;11.40;3.83;;;;;;;-143.84;53.41;44932.91;5112620;28;20858;-64
2023/07/14 14:32:41;;;;;;;9.20;3.40;;;;;;;-143.84;53.46;44972.91;5111731;28;20983;-63
2023/07/14 14:35:24;;;;;;;12.60;3.73;;;;;;;-143.84;53.67;44971.00;5111777;28;20482;-64
2023/07/14 14:37:55;;;;;;;10.80;3.50;;;;;;;-143.84;55.10;44963.38;5112268;28;20513;-67
2023/07/14 14:40:22;;;;;;;7.50;3.67;;;;;;;-143.84;55.72;44965.28;5111936;28;20527;-68
2023/07/14 14:42:50;;;;;;;12.80;3.63;;;;;;;-143.84;55.37;44972.91;5112020;28;20437;-67
2023/07/14 14:45:24;;;;;;;25.53;3.70;;;;;;;-143.84;55.46;44986.22;5112209;28;20454;-67
2023/07/14 14:47:52;;;;;;;8.97;3.43;;;;;;;-143.84;54.59;44944.34;5112431;28;20500;-67
2023/07/14 14:50:21;;;;;;;15.83;3.93;;;;;;;-143.84;53.68;44978.63;5112050;28;20443;-67
2023/07/14 14:52:49;;;;;;;12.20;3.80;;;;;;;-143.84;53.87;44969.09;5112328;28;20494;-67
2023/07/14 14:55:18;;;;;;;8.57;3.70;;;;;;;-143.84;53.98;44961.47;5112257;28;20478;-68
2023/07/14 14:57:49;;;;;;;12.87;4.03;;;;;;;-143.84;54.63;44984.31;5111919;28;20439;-68
2023/07/14 15:00:21;;;;;;;14.57;4.50;;;;;;;-143.84;54.81;44982.41;5112195;28;20546;-67
2023/07/14 15:02:50;;;;;;;12.93;4.00;;;;;;;-143.84;55.08;44982.41;5112264;28;20522;-67
2023/07/14 15:05:22;;;;;;;15.37;4.23;;;;;;;-143.84;55.20;44984.31;5111865;28;20520;-67
2023/07/14 15:07:50;;;;;;;10.87;4.00;;;;;;;-143.84;54.13;44959.56;5112062;28;20455;-67
2023/07/14 15:10:21;;;;;;;14.07;3.70;;;;;;;-143.84;53.44;44980.53;5111832;28;20627;-67
2023/07/14 15:12:50;;;;;;;6.40;3.30;;;;;;;-143.84;56.12;44963.38;5111507;28;20479;-67
2023/07/14 15:15:20;;;;;;;10.73;3.77;;;;;;;-143.84;56.86;44967.19;5111560;28;20483;-67
2023/07/14 15:17:47;;;;;;;9.20;3.60;;;;;;;-143.84;55.80;44948.16;5119690;27;20456;-67
2023/07/14 15:20:20;;;;;;;7.17;3.40;;;;;;;-143.84;56.34;44980.53;5132246;27;20837;-67
2023/07/14 15:22:47;;;;;;;9.07;3.00;;;;;;;-143.84;56.71;44972.91;5132077;27;20537;-68
2023/07/14 15:25:15;;;;;;;7.00;3.20;;;;;;;-143.84;56.93;44984.31;5132059;27;20454;-68
2023/07/14 15:27:44;;;;;;;12.17;4.50;;;;;;;-143.84;57.94;44980.53;5132157;27;20483;-67
2023/07/14 15:30:23;;;;;;;10.90;4.10;;;;;;;-143.84;59.10;44961.47;5116075;27;20952;-67
2023/07/14 15:32:50;;;;;;;17.33;4.00;;;;;;;-143.84;59.01;44961.47;5111273;28;20929;-68
2023/07/14 15:35:20;;;;;;;12.30;4.13;;;;;;;-143.84;59.21;44951.97;5111461;28;20487;-69
2023/07/14 15:37:48;;;;;;;10.63;3.80;;;;;;;-143.84;59.13;45007.19;5111391;28;20830;-69
2023/07/14 15:40:15;;;;;;;14.60;3.80;;;;;;;-143.84;59.70;45001.47;5111444;28;20440;-70
2023/07/14 15:42:44;;;;;;;8.03;3.70;;;;;;;-143.84;60.04;44982.41;5110720;28;20447;-70
2023/07/14 15:47:46;;;;;;;9.43;4.57;;;;;;;-143.84;61.73;44999.56;5047254;28;20488;-62
2023/07/14 15:50:13;;;;;;;7.30;3.70;;;;;;;-143.84;61.10;44980.53;5050134;28;20504;-62
2023/07/14 15:52:44;;;;;;;8.23;3.30;;;;;;;-143.84;61.86;45009.09;5049860;28;20528;-62
2023/07/14 15:55:16;;;;;;;17.90;4.87;;;;;;;-143.84;62.56;44986.22;5049925;28;20482;-62
2023/07/14 15:57:44;;;;;;;9.83;3.50;;;;;;;-143.84;64.83;44995.75;5050067;28;20565;-62
2023/07/14 16:00:15;;;;;;;12.23;4.10;;;;;;;-143.84;64.45;44988.13;5049024;28;21356;-62
2023/07/14 16:02:42;;;;;;;14.70;4.03;;;;;;;-143.84;65.63;44997.66;5049549;28;20454;-62
2023/07/14 16:05:10;;;;;;;7.87;4.13;;;;;;;-143.84;65.32;45012.88;5049858;28;20450;-62
2023/07/14 16:07:38;;;;;;;10.17;3.77;;;;;;;-143.84;64.61;44993.84;5049259;28;20444;-62
2023/07/14 16:10:11;;;;;;;11.90;3.50;;;;;;;-143.84;64.79;44984.31;5049465;28;20449;-62
2023/07/14 16:12:39;;;;;;;9.70;3.13;;;;;;;-143.84;64.05;44984.31;5049356;28;20458;-62
2023/07/14 16:15:15;;;;;;;14.20;4.10;;;;;;;-143.84;63.70;44995.75;5049512;28;20573;-62
2023/07/14 16:17:42;;;;;;;16.40;3.57;;;;;;;-143.84;62.28;44980.53;5049479;28;20451;-62
2023/07/14 16:20:12;;;;;;;7.93;4.20;;;;;;;-143.84;62.33;45005.28;5049545;28;20973;-62
2023/07/14 16:22:39;;;;;;;16.20;3.40;;;;;;;-143.84;63.02;44991.94;5049303;28;21019;-62
2023/07/14 16:25:14;;;;;;;7.40;4.13;;;;;;;-143.84;60.58;44971.00;5049129;28;20442;-62
2023/07/14 16:27:42;;;;;;;5.83;3.47;;;;;;;-143.84;61.22;45007.19;5045707;28;20994;-62
2023/07/14 16:30:16;;;;;;;13.27;4.47;;;;;;;-143.84;63.35;45009.09;5048901;28;21024;-62
2023/07/14 16:32:44;;;;;;;12.50;4.40;;;;;;;-143.84;63.91;44971.00;5046258;28;20818;-62
2023/07/14 16:35:14;;;;;;;11.40;3.73;;;;;;;-143.84;64.08;44999.56;5049247;28;20493;-62
2023/07/14 16:37:43;;;;;;;18.33;3.83;;;;;;;-143.84;63.55;44986.22;5045948;28;20448;-62
2023/07/14 16:40:21;;;;;;;8.10;3.73;;;;;;;-143.84;62.20;45007.19;5048687;28;20800;-62
2023/07/14 16:42:48;;;;;;;16.50;4.27;;;;;;;-143.84;62.51;45003.38;5046402;28;20465;-62
2023/07/14 16:45:18;;;;;;;9.77;3.93;;;;;;;-143.84;61.78;45005.28;5049233;28;20545;-62
2023/07/14 16:47:45;;;;;;;12.73;4.70;;;;;;;-143.84;62.88;44990.03;5049880;28;20490;-62
2023/07/14 16:50:12;;;;;;;10.23;4.17;;;;;;;-143.84;62.75;44993.84;5050549;28;20474;-62
2023/07/14 16:52:41;;;;;;;14.50;4.17;;;;;;;-143.84;63.31;44997.66;5050258;28;20521;-62
2023/07/14 16:55:14;;;;;;;7.00;3.60;;;;;;;-143.84;62.81;44993.84;5049452;28;20529;-62
2023/07/14 16:57:42;;;;;;;19.73;5.13;;;;;;;-143.84;63.69;44984.31;5050697;28;20451;-62
2023/07/14 17:00:26;;;;;;;10.83;4.27;;;;;;;-143.84;64.71;44997.66;5050611;28;20507;-62
2023/07/14 17:02:56;;;;;;;11.03;3.50;;;;;;;-143.84;65.99;45022.41;5050653;28;20539;-62
2023/07/14 17:05:26;;;;;;;12.27;5.23;;;;;;;-143.84;67.44;45003.38;5050489;28;20860;-62
2023/07/14 17:07:53;;;;;;;13.60;4.40;;;;;;;-143.84;67.83;44999.56;5050341;28;20869;-62
2023/07/14 17:10:23;;;;;;;14.83;5.20;;;;;;;-143.84;68.90;45009.09;5050058;28;20450;-62
2023/07/14 17:12:54;;;;;;;14.70;5.33;;;;;;;-143.84;69.45;45010.97;5044573;28;20458;-62
2023/07/14 17:15:21;;;;;;;13.13;4.53;;;;;;;-143.84;69.89;44993.84;5049477;28;20482;-62
2023/07/14 17:17:48;;;;;;;15.53;6.23;;;;;;;-143.84;71.37;44990.03;5045576;28;20496;-62
2023/07/14 17:20:20;;;;;;;23.17;9.53;;;;;;;-143.84;71.61;45022.41;5048018;28;20465;-62
2023/07/14 17:22:48;;;;;;;24.80;10.97;;;;;;;-143.84;72.02;44984.31;5049027;28;20450;-62
2023/07/14 17:25:24;;;;;;;16.50;6.70;;;;;;;-143.84;72.65;44993.84;5049791;28;20454;-62
2023/07/14 17:27:53;;;;;;;23.83;10.10;;;;;;;-143.84;73.10;45005.28;5045683;28;20442;-62
2023/07/14 17:30:25;;;;;;;19.23;10.10;;;;;;;-143.84;73.49;45033.84;5049668;28;20879;-62
2023/07/14 17:32:53;;;;;;;11.60;5.80;;;;;;;-143.84;73.85;45026.22;5050081;28;22134;-61
2023/07/14 17:35:21;;;;;;;8.97;4.23;;;;;;;-143.84;73.62;45020.50;5049688;28;20994;-62
2023/07/14 17:37:48;;;;;;;15.13;4.27;;;;;;;-143.84;73.75;45022.41;5050094;28;20435;-62
2023/07/14 17:40:25;;;;;;;22.53;7.43;;;;;;;-143.84;73.68;45009.09;5049766;28;20438;-61
2023/07/14 17:42:54;;;;;;;18.07;6.37;;;;;;;-143.84;73.92;45010.97;5053111;28;20450;-62
2023/07/14 17:45:23;;;;;;;18.10;6.20;;;;;;;-143.84;73.89;45009.09;5052999;28;20896;-62
2023/07/14 17:47:51;;;;;;;18.63;5.67;;;;;;;-143.84;73.62;45010.97;5052504;28;20440;-62
2023/07/14 17:50:19;;;;;;;13.43;6.00;;;;;;;-143.84;73.83;45005.28;5052489;28;20469;-62
2023/07/14 17:52:49;;;;;;;17.90;5.00;;;;;;;-143.84;73.07;45031.94;5052743;28;20454;-62
2023/07/14 17:55:19;;;;;;;11.57;4.30;;;;;;;-143.84;73.42;45001.47;5052388;28;20994;-62
2023/07/14 17:57:48;;;;;;;22.50;5.07;;;;;;;-143.84;73.64;45009.09;5052652;28;20438;-62
2023/07/14 18:00:19;;;;;;;10.10;4.33;;;;;;;-143.84;73.88;45003.38;5052400;28;20951;-62
2023/07/14 18:02:48;;;;;;;13.83;4.23;;;;;;;-143.84;74.19;45010.97;5052380;28;20485;-62
2023/07/14 18:05:17;;;;;;;15.60;4.63;;;;;;;-143.84;74.28;45010.97;5052567;28;20470;-62
2023/07/14 18:07:45;;;;;;;11.97;4.87;;;;;;;-143.84;74.48;45033.84;5052727;28;20448;-62
2023/07/14 18:10:13;;;;;;;9.47;4.47;;;;;;;-143.84;74.84;45007.19;5052131;28;20943;-62
2023/07/14 18:12:41;;;;;;;10.33;4.30;;;;;;;-143.84;75.22;44997.66;5052339;28;20445;-62
2023/07/14 18:15:22;;;;;;;11.37;3.20;;;;;;;-143.84;75.46;45031.94;5052086;28;20583;-61
2023/07/14 18:17:49;;;;;;;19.73;4.80;;;;;;;-143.84;76.66;45024.31;5052093;28;20480;-62
2023/07/14 18:20:18;;;;;;;14.50;5.40;;;;;;;-143.84;76.00;45003.38;5051893;28;20450;-62
2023/07/14 18:22:47;;;;;;;12.87;4.00;;;;;;;-143.84;75.58;45022.41;5051608;28;20833;-62
2023/07/14 18:25:18;;;;;;;12.80;5.03;;;;;;;-143.84;76.46;44997.66;5052218;28;20537;-63
2023/07/14 18:27:45;;;;;;;20.10;4.60;;;;;;;-143.84;76.51;45005.28;5051689;28;21016;-62
2023/07/14 18:30:21;;;;;;;21.00;5.90;;;;;;;-143.84;77.00;45010.97;5051933;28;20445;-63
2023/07/14 18:32:49;;;;;;;23.60;5.40;;;;;;;-143.84;78.03;45001.47;5051805;28;20444;-63
2023/07/14 18:35:25;;;;;;;17.67;5.30;;;;;;;-143.84;78.13;45037.66;5051246;28;20478;-63
2023/07/14 18:37:53;;;;;;;53.20;6.27;;;;;;;-143.84;78.71;45026.22;5051962;28;20437;-62
2023/07/14 18:40:24;;;;;;;18.13;5.90;;;;;;;-143.84;78.79;45018.59;5051858;28;20450;-62
2023/07/14 18:42:59;;;;;;;27.83;6.00;;;;;;;-143.84;79.23;45001.47;5051599;28;20453;-62
2023/07/14 18:45:29;;;;;;;27.63;6.63;;;;;;;-143.84;79.71;45014.78;5051367;28;20464;-62
2023/07/14 18:48:13;;;;;;;23.93;7.13;;;;;;;-143.84;79.89;45031.94;5051656;28;21033;-63
2023/07/14 18:50:41;;;;;;;23.33;6.67;;;;;;;-143.84;80.49;45001.47;5051422;28;20437;-62
2023/07/14 18:53:14;;;;;;;50.00;8.10;;;;;;;-143.84;80.16;45024.31;5050206;28;20442;-63
2023/07/14 18:55:42;;;;;;;30.40;6.23;;;;;;;-143.84;80.33;44999.56;5051884;28;20484;-62
2023/07/14 18:58:14;;;;;;;28.53;5.50;;;;;;;-143.84;81.24;45031.94;5051592;28;20449;-62
2023/07/14 19:00:45;;;;;;;15.10;6.07;;;;;;;-143.84;82.10;45028.13;5051433;28;20529;-62
2023/07/14 19:03:24;;;;;;;21.87;7.10;;;;;;;-143.84;81.94;45005.28;5051176;28;20444;-63
2023/07/14 19:05:52;;;;;;;16.60;5.20;;;;;;;-143.84;81.15;45016.69;5051231;28;20455;-62
2023/07/14 19:08:19;;;;;;;23.03;5.90;;;;;;;-143.84;80.71;45031.94;5051301;28;20864;-62
2023/07/14 19:10:48;;;;;;;16.23;4.93;;;;;;;-143.84;80.83;45020.50;5051057;28;20517;-62
2023/07/14 19:13:21;;;;;;;19.30;6.10;;;;;;;-143.84;80.62;45047.16;5050920;28;20441;-63
2023/07/14 19:15:50;;;;;;;13.97;4.90;;;;;;;-143.84;80.78;45030.03;5051099;28;20488;-62
2023/07/14 19:18:22;;;;;;;16.67;6.30;;;;;;;-143.84;81.05;45014.78;5050640;28;20444;-63
2023/07/14 19:20:54;;;;;;;16.40;5.20;;;;;;;-143.84;81.41;45033.84;5050665;28;20958;-63
2023/07/14 19:23:21;;;;;;;13.23;4.83;;;;;;;-143.84;82.21;45014.78;5050944;28;20450;-63
2023/07/14 19:25:49;;;;;;;7.57;4.33;;;;;;;-143.84;82.48;45037.66;5050812;28;20452;-62
2023/07/14 19:28:18;;;;;;;16.03;5.20;;;;;;;-143.84;82.60;45026.22;5050710;28;20793;-62
2023/07/14 19:30:46;;;;;;;11.10;5.07;;;;;;;-143.84;82.54;45020.50;5050590;28;20452;-62
2023/07/14 19:33:21;;;;;;;14.63;5.27;;;;;;;-143.84;82.65;45016.69;5030850;28;20455;-62
2023/07/14 19:35:54;;;;;;;14.73;5.70;;;;;;;-143.84;82.41;45047.16;5030849;28;20570;-62
2023/07/14 19:38:26;;;;;;;18.73;5.73;;;;;;;-143.84;82.41;45035.75;5030915;28;20813;-63
2023/07/14 19:40:53;;;;;;;11.77;5.00;;;;;;;-143.84;82.19;45026.22;5033446;28;20817;-63
2023/07/14 19:43:23;;;;;;;12.77;5.50;;;;;;;-143.84;82.27;45039.53;5050726;28;20453;-62
2023/07/14 19:45:50;;;;;;;8.30;4.40;;;;;;;-143.84;81.83;45020.50;5050393;28;20554;-63
2023/07/14 19:48:21;;;;;;;13.43;5.20;;;;;;;-143.84;82.01;45007.19;5050886;28;20441;-63
2023/07/14 19:50:50;;;;;;;16.83;5.43;;;;;;;-143.84;81.69;45047.16;5050715;28;20450;-65
2023/07/14 19:53:22;;;;;;;17.47;4.93;;;;;;;-143.84;81.98;45041.44;5050405;28;20453;-65
2023/07/14 19:55:50;;;;;;;21.57;5.40;;;;;;;-143.84;81.52;45010.97;5050341;28;20578;-64
2023/07/14 19:58:17;;;;;;;16.93;5.03;;;;;;;-143.84;81.67;45014.78;5050176;28;20441;-64
2023/07/14 20:00:45;;;;;;;11.43;5.00;;;;;;;-143.84;81.61;45020.50;5050407;28;20824;-64
2023/07/14 20:03:21;;;;;;;12.30;4.70;;;;;;;-143.84;81.82;45014.78;5049950;28;20461;-64
2023/07/14 20:05:50;;;;;;;11.90;5.77;;;;;;;-143.84;82.14;45026.22;5050133;28;20459;-65
2023/07/14 20:08:19;;;;;;;12.73;4.33;;;;;;;-143.84;81.86;45026.22;5050118;28;20456;-64
2023/07/14 20:10:47;;;;;;;9.83;4.17;;;;;;;-143.84;82.29;45014.78;5049896;28;20456;-64
2023/07/14 20:13:18;;;;;;;9.90;5.10;;;;;;;-143.84;82.08;45049.06;5050008;28;21007;-64
2023/07/14 20:15:45;;;;;;;19.87;5.17;;;;;;;-143.84;81.79;45009.09;5049856;28;20559;-64
2023/07/14 20:18:15;;;;;;;12.27;4.20;;;;;;;-143.84;81.85;45014.78;5050033;28;20438;-64
2023/07/14 20:20:44;;;;;;;16.80;4.20;;;;;;;-143.84;81.76;45064.31;5049925;28;20923;-64
2023/07/14 20:23:30;;;;;;;12.93;5.10;;;;;;;-143.84;81.68;45012.88;5050178;28;20453;-64
2023/07/14 20:26:03;;;;;;;13.50;4.87;;;;;;;-143.84;81.31;45022.41;5049772;28;20449;-64
2023/07/14 20:28:33;;;;;;;13.47;4.93;;;;;;;-143.84;81.12;45043.34;5049628;28;20815;-65
2023/07/14 20:31:02;;;;;;;12.73;5.00;;;;;;;-143.84;81.11;45052.88;5049932;28;20442;-64
2023/07/14 20:33:30;;;;;;;12.00;4.20;;;;;;;-143.84;80.68;44984.31;5049645;28;20448;-64
2023/07/14 20:35:59;;;;;;;11.17;5.20;;;;;;;-143.84;80.67;45001.47;5049336;28;20885;-64
2023/07/14 20:38:26;;;;;;;9.00;5.23;;;;;;;-143.84;80.22;45039.53;5049591;28;20514;-64
2023/07/14 20:40:56;;;;;;;9.90;4.40;;;;;;;-143.84;79.91;45020.50;5049238;28;20441;-64
2023/07/14 20:43:27;;;;;;;20.13;5.77;;;;;;;-143.84;80.43;45007.19;5049308;28;20446;-64
2023/07/14 20:45:54;;;;;;;19.70;5.63;;;;;;;-143.84;80.45;45007.19;5049144;28;20478;-64
2023/07/14 20:48:24;;;;;;;9.63;5.20;;;;;;;-143.84;80.54;45014.78;5049294;28;20444;-64
2023/07/14 20:50:54;;;;;;;12.33;4.80;;;;;;;-143.84;80.55;45047.16;5049304;28;20445;-64
2023/07/14 20:53:26;;;;;;;9.50;4.80;;;;;;;-143.84;80.25;45031.94;5049235;28;20441;-64
2023/07/14 20:55:56;;;;;;;13.70;4.80;;;;;;;-143.84;79.71;45031.94;5049127;28;20481;-64
2023/07/14 20:58:26;;;;;;;15.10;5.47;;;;;;;-143.84;79.84;45028.13;5049414;28;20477;-64
2023/07/14 21:00:54;;;;;;;8.53;5.17;;;;;;;-143.84;79.77;45049.06;5049397;28;20451;-64
2023/07/14 21:03:23;;;;;;;10.87;4.87;;;;;;;-143.84;80.02;45028.13;5049179;28;20464;-65
2023/07/14 21:05:53;;;;;;;9.37;4.93;;;;;;;-143.84;79.91;45012.88;5049125;28;20499;-64
2023/07/14 21:08:25;;;;;;;9.97;5.83;;;;;;;-143.84;79.90;45041.44;5049111;28;21166;-64
2023/07/14 21:10:55;;;;;;;9.13;5.10;;;;;;;-143.84;80.02;45035.75;5049518;28;20494;-64
2023/07/14 21:13:25;;;;;;;15.13;4.93;;;;;;;-143.84;80.09;45041.44;5048636;28;20454;-64